createdAt,value
2019-05-23T00:00:04.949Z,11.11
2019-05-23T00:01:05.082Z,11.13
2019-05-23T00:02:04.779Z,11.12
2019-05-23T00:03:04.705Z,11.12
2019-05-23T00:04:04.793Z,11.06
2019-05-23T00:05:04.537Z,11.03
2019-05-23T00:06:04.469Z,11.06
2019-05-23T00:07:04.400Z,11.03
2019-05-23T00:08:04.282Z,10.93
2019-05-23T00:09:04.421Z,10.99
2019-05-23T00:10:04.118Z,10.91
2019-05-23T00:11:04.069Z,10.86
2019-05-23T00:12:04.029Z,10.80
2019-05-23T00:13:03.875Z,10.84
2019-05-23T00:14:03.792Z,10.83
2019-05-23T00:15:03.870Z,10.84
2019-05-23T00:16:03.636Z,10.83
2019-05-23T00:17:03.550Z,10.75
2019-05-23T00:18:03.657Z,10.75
2019-05-23T00:19:03.375Z,10.72
2019-05-23T00:20:03.469Z,10.76
2019-05-23T00:21:03.226Z,10.60
2019-05-23T00:22:03.126Z,10.76
2019-05-23T00:23:03.084Z,10.60
2019-05-23T00:24:02.954Z,10.70
2019-05-23T00:25:02.880Z,10.62
2019-05-23T00:26:02.920Z,10.66
2019-05-23T00:27:02.708Z,10.63
2019-05-23T00:28:02.703Z,10.57
2019-05-23T00:29:10.112Z,10.62
2019-05-23T00:30:02.506Z,10.60
2019-05-23T00:31:02.395Z,10.60
2019-05-23T00:32:02.315Z,10.62
2019-05-23T00:33:02.210Z,10.46
2019-05-23T00:34:02.338Z,10.46
2019-05-23T00:35:02.046Z,10.51
2019-05-23T00:36:02.181Z,10.51
2019-05-23T00:37:01.880Z,10.46
2019-05-23T00:38:01.792Z,10.52
2019-05-23T00:39:01.708Z,10.47
2019-05-23T00:40:01.770Z,10.47
2019-05-23T00:41:01.556Z,10.39
2019-05-23T00:42:01.456Z,10.43
2019-05-23T00:43:01.386Z,10.36
2019-05-23T00:44:01.368Z,10.36
2019-05-23T00:45:01.208Z,10.28
2019-05-23T00:46:01.157Z,10.39
2019-05-23T00:47:01.188Z,10.36
2019-05-23T00:48:00.962Z,10.34
2019-05-23T00:49:00.884Z,10.22
2019-05-23T00:50:01.002Z,10.25
2019-05-23T00:51:04.558Z,10.25
2019-05-23T00:52:00.654Z,10.26
2019-05-23T00:53:00.611Z,10.22
2019-05-23T00:54:00.462Z,10.17
2019-05-23T00:55:00.380Z,10.11
2019-05-23T00:56:00.425Z,10.07
2019-05-23T00:57:00.230Z,10.14
2019-05-23T00:58:00.237Z,10.07
2019-05-23T00:59:00.043Z,10.09
2019-05-23T01:00:00.043Z,10.04
2019-05-23T01:00:59.884Z,10.02
2019-05-23T01:01:59.885Z,10.01
2019-05-23T01:02:59.713Z,9.92
2019-05-23T01:03:59.658Z,10.01
2019-05-23T01:04:59.546Z,9.98
2019-05-23T01:05:59.674Z,9.96
2019-05-23T01:06:59.393Z,9.91
2019-05-23T01:07:59.297Z,9.89
2019-05-23T01:08:59.286Z,9.89
2019-05-23T01:09:59.130Z,9.93
2019-05-23T01:10:59.044Z,9.86
2019-05-23T01:11:59.035Z,9.89
2019-05-23T01:12:58.877Z,9.88
2019-05-23T01:13:58.796Z,9.89
2019-05-23T01:14:58.707Z,9.96
2019-05-23T01:15:58.716Z,9.81
2019-05-23T01:16:58.559Z,9.95
2019-05-23T01:17:58.466Z,9.88
2019-05-23T01:18:58.532Z,9.80
2019-05-23T01:19:58.296Z,9.85
2019-05-23T01:20:58.214Z,9.85
2019-05-23T01:21:58.179Z,9.92
2019-05-23T01:22:58.038Z,9.98
2019-05-23T01:23:58.154Z,10.01
2019-05-23T01:24:57.874Z,9.98
2019-05-23T01:25:57.964Z,9.92
2019-05-23T01:26:58.005Z,9.95
2019-05-23T01:27:57.622Z,9.93
2019-05-23T01:28:57.572Z,9.89
2019-05-23T01:29:57.462Z,9.89
2019-05-23T01:30:57.374Z,9.95
2019-05-23T01:31:57.757Z,9.85
2019-05-23T01:32:57.225Z,9.86
2019-05-23T01:33:57.198Z,9.86
2019-05-23T01:34:57.043Z,9.81
2019-05-23T01:35:57.001Z,9.83
2019-05-23T01:36:56.872Z,9.80
2019-05-23T01:37:56.849Z,9.73
2019-05-23T01:38:56.702Z,9.80
2019-05-23T01:39:56.827Z,9.71
2019-05-23T01:40:56.541Z,9.67
2019-05-23T01:41:56.636Z,9.65
2019-05-23T01:42:56.386Z,9.81
2019-05-23T01:43:56.443Z,9.71
2019-05-23T01:44:56.202Z,9.73
2019-05-23T01:45:56.251Z,9.71
2019-05-23T01:46:56.041Z,9.71
2019-05-23T01:47:55.962Z,9.68
2019-05-23T01:48:55.869Z,9.75
2019-05-23T01:49:55.868Z,9.67
2019-05-23T01:50:55.697Z,9.71
2019-05-23T01:51:55.625Z,9.68
2019-05-23T01:52:55.544Z,9.60
2019-05-23T01:53:55.484Z,9.56
2019-05-23T01:54:55.374Z,9.62
2019-05-23T01:55:55.497Z,9.59
2019-05-23T01:56:55.201Z,9.58
2019-05-23T01:57:55.127Z,9.67
2019-05-23T01:58:55.110Z,9.62
2019-05-23T02:00:09.060Z,9.55
2019-05-23T02:00:54.869Z,9.52
2019-05-23T02:01:54.926Z,9.44
2019-05-23T02:02:54.727Z,9.44
2019-05-23T02:03:54.618Z,9.48
2019-05-23T02:04:54.743Z,9.44
2019-05-23T02:05:54.446Z,9.55
2019-05-23T02:06:54.362Z,9.55
2019-05-23T02:07:54.352Z,9.56
2019-05-23T02:08:54.217Z,9.53
2019-05-23T02:09:54.108Z,9.55
2019-05-23T02:10:54.162Z,9.58
2019-05-23T02:11:53.953Z,9.59
2019-05-23T02:12:53.865Z,9.63
2019-05-23T02:13:53.811Z,9.68
2019-05-23T02:14:53.694Z,9.67
2019-05-23T02:15:53.790Z,9.68
2019-05-23T02:16:53.533Z,9.67
2019-05-23T02:17:53.443Z,9.71
2019-05-23T02:18:53.430Z,9.68
2019-05-23T02:19:53.278Z,9.74
2019-05-23T02:20:53.195Z,9.68
2019-05-23T02:21:53.214Z,9.73
2019-05-23T02:22:53.029Z,9.67
2019-05-23T02:23:53.057Z,9.63
2019-05-23T02:24:52.855Z,9.59
2019-05-23T02:25:52.830Z,9.63
2019-05-23T02:26:52.686Z,9.55
2019-05-23T02:27:52.609Z,9.56
2019-05-23T02:28:52.537Z,9.58
2019-05-23T02:29:52.651Z,9.52
2019-05-23T02:30:52.352Z,9.44
2019-05-23T02:31:52.467Z,9.40
2019-05-23T02:32:52.184Z,9.44
2019-05-23T02:33:52.117Z,9.45
2019-05-23T02:34:52.071Z,9.38
2019-05-23T02:35:51.936Z,9.23
2019-05-23T02:36:51.851Z,9.24
2019-05-23T02:37:51.886Z,9.30
2019-05-23T02:38:51.702Z,9.27
2019-05-23T02:39:51.697Z,9.16
2019-05-23T02:40:51.518Z,9.27
2019-05-23T02:41:51.511Z,9.30
2019-05-23T02:42:51.350Z,9.23
2019-05-23T02:43:51.300Z,9.16
2019-05-23T02:44:51.319Z,9.17
2019-05-23T02:45:51.108Z,9.23
2019-05-23T02:46:51.017Z,9.15
2019-05-23T02:47:51.132Z,9.19
2019-05-23T02:48:50.850Z,9.10
2019-05-23T02:49:50.973Z,9.06
2019-05-23T02:50:50.677Z,9.13
2019-05-23T02:51:50.752Z,9.15
2019-05-23T02:52:50.586Z,9.03
2019-05-23T02:53:50.556Z,8.94
2019-05-23T02:54:50.354Z,8.97
2019-05-23T02:55:50.364Z,8.94
2019-05-23T02:56:50.176Z,9.15
2019-05-23T02:57:50.178Z,9.17
2019-05-23T02:58:50.009Z,9.15
2019-05-23T02:59:50.016Z,9.19
2019-05-23T03:00:54.804Z,9.10
2019-05-23T03:01:49.790Z,9.13
2019-05-23T03:02:49.696Z,9.10
2019-05-23T03:03:49.803Z,9.13
2019-05-23T03:04:49.520Z,9.00
2019-05-23T03:05:49.615Z,9.04
2019-05-23T03:06:49.342Z,9.04
2019-05-23T03:07:49.422Z,8.98
2019-05-23T03:08:49.168Z,9.12
2019-05-23T03:09:49.270Z,9.12
2019-05-23T03:10:49.009Z,9.08
2019-05-23T03:11:49.038Z,9.16
2019-05-23T03:12:48.842Z,9.16
2019-05-23T03:13:48.854Z,9.12
2019-05-23T03:14:48.686Z,9.08
2019-05-23T03:15:48.659Z,9.00
2019-05-23T03:16:48.507Z,8.93
2019-05-23T03:17:48.469Z,8.93
2019-05-23T03:18:48.333Z,8.94
2019-05-23T03:19:48.322Z,8.88
2019-05-23T03:20:48.171Z,8.88
2019-05-23T03:21:48.078Z,8.85
2019-05-23T03:22:48.091Z,8.82
2019-05-23T03:23:47.912Z,8.78
2019-05-23T03:24:47.850Z,8.83
2019-05-23T03:25:47.901Z,8.83
2019-05-23T03:26:47.666Z,8.85
2019-05-23T03:27:47.580Z,8.79
2019-05-23T03:28:47.513Z,8.78
2019-05-23T03:29:47.419Z,8.78
2019-05-23T03:30:47.531Z,8.67
2019-05-23T03:31:47.253Z,8.76
2019-05-23T03:32:47.165Z,8.67
2019-05-23T03:33:47.071Z,8.58
2019-05-23T03:34:47.179Z,8.64
2019-05-23T03:35:46.908Z,8.73
2019-05-23T03:36:46.826Z,8.73
2019-05-23T03:37:46.755Z,8.71
2019-05-23T03:38:46.660Z,8.67
2019-05-23T03:39:46.596Z,8.64
2019-05-23T03:40:46.483Z,8.73
2019-05-23T03:41:46.573Z,8.71
2019-05-23T03:42:46.317Z,8.68
2019-05-23T03:43:46.382Z,8.65
2019-05-23T03:44:46.187Z,8.63
2019-05-23T03:45:46.191Z,8.73
2019-05-23T03:46:46.028Z,8.68
2019-05-23T03:47:45.897Z,8.75
2019-05-23T03:48:46.008Z,8.67
2019-05-23T03:49:45.725Z,8.61
2019-05-23T03:50:45.656Z,8.61
2019-05-23T03:51:45.656Z,8.67
2019-05-23T03:52:45.478Z,8.57
2019-05-23T03:53:45.389Z,8.71
2019-05-23T03:54:45.433Z,8.76
2019-05-23T03:55:45.236Z,8.68
2019-05-23T03:56:45.141Z,8.68
2019-05-23T03:57:45.245Z,8.68
2019-05-23T03:58:44.994Z,8.64
2019-05-23T03:59:44.912Z,8.60
2019-05-23T04:00:44.905Z,8.65
2019-05-23T04:01:48.462Z,8.71
2019-05-23T04:02:44.643Z,8.78
2019-05-23T04:03:44.678Z,8.80
2019-05-23T04:04:44.470Z,8.78
2019-05-23T04:05:44.514Z,8.88
2019-05-23T04:06:44.302Z,8.80
2019-05-23T04:07:44.225Z,8.79
2019-05-23T04:08:44.306Z,8.80
2019-05-23T04:09:44.062Z,8.86
2019-05-23T04:10:44.459Z,8.93
2019-05-23T04:11:43.904Z,8.96
2019-05-23T04:12:43.799Z,8.98
2019-05-23T04:13:43.761Z,9.01
2019-05-23T04:14:43.720Z,9.13
2019-05-23T04:15:43.575Z,9.16
2019-05-23T04:16:43.479Z,9.06
2019-05-23T04:17:43.549Z,9.19
2019-05-23T04:18:43.307Z,9.23
2019-05-23T04:19:43.359Z,9.23
2019-05-23T04:20:43.140Z,9.30
2019-05-23T04:21:43.154Z,9.35
2019-05-23T04:22:42.963Z,9.45
2019-05-23T04:23:42.878Z,9.55
2019-05-23T04:24:42.968Z,9.58
2019-05-23T04:25:42.722Z,9.71
2019-05-23T04:26:42.628Z,9.78
2019-05-23T04:27:42.580Z,9.81
2019-05-23T04:28:42.462Z,9.83
2019-05-23T04:29:42.597Z,9.88
2019-05-23T04:30:42.306Z,9.89
2019-05-23T04:31:42.412Z,9.99
2019-05-23T04:32:42.123Z,10.06
2019-05-23T04:33:42.209Z,10.06
2019-05-23T04:34:41.958Z,10.22
2019-05-23T04:35:42.053Z,10.34
2019-05-23T04:36:41.798Z,10.42
2019-05-23T04:37:41.829Z,10.39
2019-05-23T04:38:41.646Z,10.58
2019-05-23T04:39:41.551Z,10.62
2019-05-23T04:40:41.685Z,10.57
2019-05-23T04:41:41.388Z,10.70
2019-05-23T04:42:41.304Z,10.84
2019-05-23T04:43:41.288Z,10.87
2019-05-23T04:44:44.349Z,10.90
2019-05-23T04:45:41.058Z,10.95
2019-05-23T04:46:41.077Z,10.88
2019-05-23T04:47:40.908Z,11.03
2019-05-23T04:48:40.797Z,11.16
2019-05-23T04:49:40.880Z,11.16
2019-05-23T04:50:40.654Z,11.24
2019-05-23T04:51:40.553Z,11.21
2019-05-23T04:52:40.700Z,11.20
2019-05-23T04:53:40.390Z,11.28
2019-05-23T04:54:40.307Z,11.38
2019-05-23T04:55:40.356Z,11.35
2019-05-23T04:56:40.178Z,11.41
2019-05-23T04:57:40.072Z,11.41
2019-05-23T04:58:40.119Z,11.51
2019-05-23T04:59:39.897Z,11.53
2019-05-23T05:00:39.960Z,11.54
2019-05-23T05:01:39.730Z,11.49
2019-05-23T05:02:39.651Z,11.66
2019-05-23T05:03:39.656Z,11.67
2019-05-23T05:04:39.500Z,11.81
2019-05-23T05:05:39.484Z,11.87
2019-05-23T05:06:39.367Z,12.04
2019-05-23T05:07:39.246Z,12.12
2019-05-23T05:08:39.173Z,12.29
2019-05-23T05:09:39.092Z,12.30
2019-05-23T05:10:39.013Z,12.38
2019-05-23T05:11:38.927Z,12.36
2019-05-23T05:12:38.833Z,12.55
2019-05-23T05:13:38.756Z,12.69
2019-05-23T05:14:38.793Z,12.76
2019-05-23T05:15:38.663Z,12.81
2019-05-23T05:16:38.523Z,12.80
2019-05-23T05:17:39.368Z,12.81
2019-05-23T05:18:38.491Z,12.92
2019-05-23T05:19:38.269Z,12.88
2019-05-23T05:20:38.305Z,12.88
2019-05-23T05:21:38.114Z,12.96
2019-05-23T05:22:38.033Z,12.98
2019-05-23T05:23:38.039Z,12.95
2019-05-23T05:24:40.283Z,12.98
2019-05-23T05:25:38.076Z,12.85
2019-05-23T05:26:37.854Z,12.85
2019-05-23T05:27:38.432Z,12.96
2019-05-23T05:28:38.441Z,13.12
2019-05-23T05:29:37.477Z,12.95
2019-05-23T05:30:37.393Z,12.99
2019-05-23T05:31:37.382Z,12.91
2019-05-23T05:32:45.015Z,12.98
2019-05-23T05:33:37.416Z,12.98
2019-05-23T05:34:37.058Z,12.98
2019-05-23T05:35:37.110Z,13.24
2019-05-23T05:36:36.917Z,13.31
2019-05-23T05:37:36.819Z,13.31
2019-05-23T05:38:36.826Z,13.46
2019-05-23T05:39:36.665Z,13.59
2019-05-23T05:40:36.585Z,13.63
2019-05-23T05:41:37.528Z,13.75
2019-05-23T05:42:36.421Z,13.83
2019-05-23T05:43:36.347Z,13.84
2019-05-23T05:44:36.403Z,13.87
2019-05-23T05:45:36.178Z,13.96
2019-05-23T05:46:36.114Z,14.04
2019-05-23T05:47:36.144Z,14.13
2019-05-23T05:48:35.934Z,14.19
2019-05-23T05:49:35.875Z,14.42
2019-05-23T05:50:35.827Z,14.42
2019-05-23T05:51:35.820Z,14.44
2019-05-23T05:52:35.622Z,14.69
2019-05-23T05:53:35.534Z,14.67
2019-05-23T05:54:36.479Z,14.61
2019-05-23T05:55:35.378Z,14.53
2019-05-23T05:56:35.301Z,14.53
2019-05-23T05:57:35.435Z,14.48
2019-05-23T05:58:35.145Z,14.38
2019-05-23T05:59:35.200Z,14.63
2019-05-23T06:00:34.990Z,14.52
2019-05-23T06:01:35.032Z,14.57
2019-05-23T06:02:34.861Z,14.67
2019-05-23T06:03:34.737Z,14.66
2019-05-23T06:04:34.826Z,14.82
2019-05-23T06:05:34.582Z,15.03
2019-05-23T06:06:34.504Z,14.97
2019-05-23T06:07:35.493Z,15.15
2019-05-23T06:08:34.342Z,15.33
2019-05-23T06:09:34.272Z,15.37
2019-05-23T06:10:34.180Z,15.49
2019-05-23T06:11:34.326Z,15.70
2019-05-23T06:12:34.052Z,15.70
2019-05-23T06:13:34.084Z,15.59
2019-05-23T06:14:36.221Z,15.46
2019-05-23T06:15:33.785Z,15.49
2019-05-23T06:16:33.707Z,15.40
2019-05-23T06:17:33.773Z,15.41
2019-05-23T06:18:33.566Z,15.43
2019-05-23T06:19:33.479Z,15.43
2019-05-23T06:20:33.516Z,15.43
2019-05-23T06:21:33.313Z,15.46
2019-05-23T06:22:33.285Z,15.73
2019-05-23T06:23:33.174Z,15.80
2019-05-23T06:24:44.901Z,15.80
2019-05-23T06:25:33.011Z,15.91
2019-05-23T06:26:32.919Z,16.06
2019-05-23T06:27:32.859Z,16.01
2019-05-23T06:28:32.770Z,16.23
2019-05-23T06:29:32.696Z,16.36
2019-05-23T06:30:32.896Z,16.55
2019-05-23T06:31:32.534Z,16.44
2019-05-23T06:32:32.475Z,16.36
2019-05-23T06:33:32.377Z,16.45
2019-05-23T06:34:32.325Z,16.75
2019-05-23T06:35:32.219Z,16.77
2019-05-23T06:36:32.149Z,16.85
2019-05-23T06:37:34.377Z,16.85
2019-05-23T06:38:31.991Z,16.84
2019-05-23T06:39:31.913Z,16.91
2019-05-23T06:40:31.842Z,16.91
2019-05-23T06:41:31.763Z,17.02
2019-05-23T06:42:31.699Z,17.09
2019-05-23T06:43:31.627Z,17.14
2019-05-23T06:44:31.532Z,17.30
2019-05-23T06:45:31.466Z,17.40
2019-05-23T06:46:31.378Z,17.58
2019-05-23T06:47:31.349Z,17.51
2019-05-23T06:48:31.226Z,17.62
2019-05-23T06:49:31.154Z,17.65
2019-05-23T06:50:31.079Z,17.71
2019-05-23T06:51:31.002Z,17.62
2019-05-23T06:52:30.927Z,17.76
2019-05-23T06:53:30.864Z,17.80
2019-05-23T06:54:30.781Z,17.87
2019-05-23T06:55:30.713Z,18.16
2019-05-23T06:56:30.625Z,18.05
2019-05-23T06:57:30.557Z,17.98
2019-05-23T06:58:30.502Z,17.65
2019-05-23T06:59:30.394Z,17.65
2019-05-23T07:00:30.330Z,17.71
2019-05-23T07:01:30.243Z,17.80
2019-05-23T07:02:32.100Z,17.94
2019-05-23T07:03:41.186Z,18.21
2019-05-23T07:04:30.024Z,18.01
2019-05-23T07:05:29.954Z,17.89
2019-05-23T07:06:29.869Z,18.10
2019-05-23T07:07:29.796Z,18.39
2019-05-23T07:08:29.769Z,18.29
2019-05-23T07:09:29.649Z,18.28
2019-05-23T07:10:29.588Z,18.56
2019-05-23T07:11:29.498Z,18.82
2019-05-23T07:12:29.440Z,19.06
2019-05-23T07:13:29.370Z,19.27
2019-05-23T07:14:29.277Z,19.24
2019-05-23T07:15:29.210Z,19.40
2019-05-23T07:16:29.143Z,19.31
2019-05-23T07:17:29.062Z,19.32
2019-05-23T07:18:29.022Z,19.17
2019-05-23T07:19:28.931Z,19.10
2019-05-23T07:20:28.844Z,19.12
2019-05-23T07:21:28.766Z,18.99
2019-05-23T07:22:28.703Z,19.12
2019-05-23T07:23:28.634Z,19.15
2019-05-23T07:24:28.551Z,19.13
2019-05-23T07:25:28.480Z,19.17
2019-05-23T07:26:28.415Z,19.45
2019-05-23T07:27:28.329Z,19.35
2019-05-23T07:28:28.268Z,19.12
2019-05-23T07:29:28.181Z,18.94
2019-05-23T07:30:28.121Z,18.66
2019-05-23T07:31:28.035Z,18.26
2019-05-23T07:32:27.964Z,18.23
2019-05-23T07:33:27.902Z,17.96
2019-05-23T07:34:27.819Z,18.31
2019-05-23T07:35:27.744Z,18.60
2019-05-23T07:36:27.680Z,18.99
2019-05-23T07:37:27.648Z,19.46
2019-05-23T07:38:27.535Z,19.71
2019-05-23T07:39:27.461Z,19.82
2019-05-23T07:40:27.400Z,20.07
2019-05-23T07:41:27.311Z,20.33
2019-05-23T07:42:27.238Z,20.44
2019-05-23T07:43:27.181Z,20.58
2019-05-23T07:44:27.094Z,20.73
2019-05-23T07:45:27.044Z,20.78
2019-05-23T07:46:26.948Z,20.64
2019-05-23T07:47:26.896Z,20.61
2019-05-23T07:48:26.833Z,20.73
2019-05-23T07:49:26.735Z,20.64
2019-05-23T07:50:26.670Z,20.50
2019-05-23T07:51:29.652Z,20.57
2019-05-23T07:52:26.530Z,20.60
2019-05-23T07:53:26.468Z,20.46
2019-05-23T07:54:26.402Z,20.58
2019-05-23T07:55:26.314Z,20.68
2019-05-23T07:56:26.274Z,20.73
2019-05-23T07:57:26.169Z,21.19
2019-05-23T07:58:26.122Z,21.15
2019-05-23T07:59:26.027Z,21.55
2019-05-23T08:00:25.963Z,21.49
2019-05-23T08:01:25.898Z,21.61
2019-05-23T08:02:26.446Z,21.77
2019-05-23T08:03:25.781Z,21.79
2019-05-23T08:04:25.736Z,21.90
2019-05-23T08:05:25.637Z,21.86
2019-05-23T08:06:26.583Z,21.96
2019-05-23T08:07:25.475Z,21.99
2019-05-23T08:08:25.469Z,22.21
2019-05-23T08:09:25.354Z,22.38
2019-05-23T08:10:33.849Z,22.42
2019-05-23T08:11:25.194Z,22.66
2019-05-23T08:12:25.187Z,22.70
2019-05-23T08:13:25.073Z,22.72
2019-05-23T08:14:25.071Z,22.61
2019-05-23T08:15:24.926Z,22.57
2019-05-23T08:16:25.050Z,22.59
2019-05-23T08:17:24.822Z,22.72
2019-05-23T08:18:24.863Z,22.97
2019-05-23T08:19:24.662Z,23.22
2019-05-23T08:20:24.577Z,23.35
2019-05-23T08:21:24.700Z,23.37
2019-05-23T08:22:24.441Z,23.52
2019-05-23T08:23:24.377Z,23.49
2019-05-23T08:24:24.398Z,23.26
2019-05-23T08:25:24.236Z,23.19
2019-05-23T08:26:24.269Z,23.23
2019-05-23T08:27:24.104Z,23.39
2019-05-23T08:28:24.046Z,23.49
2019-05-23T08:29:26.612Z,23.63
2019-05-23T08:30:24.117Z,23.92
2019-05-23T08:31:23.835Z,23.81
2019-05-23T08:32:23.929Z,23.89
2019-05-23T08:33:23.696Z,23.71
2019-05-23T08:34:39.997Z,23.68
2019-05-23T08:35:23.559Z,23.42
2019-05-23T08:36:23.542Z,23.04
2019-05-23T08:37:23.424Z,23.19
2019-05-23T08:38:23.367Z,23.00
2019-05-23T08:39:23.307Z,22.97
2019-05-23T08:40:23.366Z,22.99
2019-05-23T08:41:23.188Z,22.96
2019-05-23T08:42:23.173Z,23.29
2019-05-23T08:43:23.025Z,23.42
2019-05-23T08:44:22.979Z,23.39
2019-05-23T08:45:22.892Z,23.32
2019-05-23T08:46:22.998Z,23.63
2019-05-23T08:47:22.761Z,23.84
2019-05-23T08:48:22.694Z,24.02
2019-05-23T08:49:22.639Z,24.12
2019-05-23T08:50:22.555Z,23.84
2019-05-23T08:51:22.622Z,23.64
2019-05-23T08:52:22.421Z,23.78
2019-05-23T08:53:22.425Z,24.02
2019-05-23T08:54:22.297Z,24.19
2019-05-23T08:55:22.220Z,24.52
2019-05-23T08:56:22.240Z,24.51
2019-05-23T08:57:22.121Z,24.56
2019-05-23T08:58:22.013Z,24.68
2019-05-23T08:59:22.088Z,24.83
2019-05-23T09:00:21.879Z,24.98
2019-05-23T09:01:21.808Z,25.17
2019-05-23T09:02:21.850Z,25.19
2019-05-23T09:03:21.679Z,25.19
2019-05-23T09:04:21.648Z,25.27
2019-05-23T09:05:21.558Z,25.07
2019-05-23T09:06:21.483Z,24.68
2019-05-23T09:07:21.481Z,24.63
2019-05-23T09:08:21.355Z,24.59
2019-05-23T09:09:29.793Z,24.70
2019-05-23T09:10:21.232Z,24.82
2019-05-23T09:11:21.198Z,24.86
2019-05-23T09:12:21.088Z,25.07
2019-05-23T09:13:22.034Z,25.12
2019-05-23T09:14:20.948Z,25.27
2019-05-23T09:15:20.959Z,25.31
2019-05-23T09:16:20.826Z,25.38
2019-05-23T09:17:20.967Z,25.09
2019-05-23T09:18:20.696Z,25.04
2019-05-23T09:19:20.625Z,24.94
2019-05-23T09:20:20.576Z,25.12
2019-05-23T09:21:20.497Z,25.31
2019-05-23T09:22:20.423Z,25.60
2019-05-23T09:23:20.580Z,25.72
2019-05-23T09:24:20.296Z,25.75
2019-05-23T09:25:20.434Z,25.76
2019-05-23T09:26:20.170Z,25.56
2019-05-23T09:27:20.201Z,25.35
2019-05-23T09:28:20.039Z,25.12
2019-05-23T09:29:21.231Z,25.19
2019-05-23T09:30:19.921Z,25.16
2019-05-23T09:31:20.019Z,25.20
2019-05-23T09:32:19.768Z,25.27
2019-05-23T09:33:19.734Z,25.42
2019-05-23T09:34:19.646Z,25.45
2019-05-23T09:35:21.998Z,25.59
2019-05-23T09:36:19.640Z,25.53
2019-05-23T09:37:19.453Z,25.66
2019-05-23T09:38:19.380Z,25.63
2019-05-23T09:39:19.347Z,25.51
2019-05-23T09:40:19.261Z,25.64
2019-05-23T09:41:19.186Z,25.93
2019-05-23T09:42:19.269Z,25.72
2019-05-23T09:43:19.050Z,25.57
2019-05-23T09:44:18.986Z,25.42
2019-05-23T09:45:19.126Z,25.41
2019-05-23T09:46:18.877Z,25.35
2019-05-23T09:47:18.892Z,24.94
2019-05-23T09:48:18.729Z,25.02
2019-05-23T09:49:18.725Z,25.14
2019-05-23T09:50:18.609Z,24.94
2019-05-23T09:51:18.718Z,24.74
2019-05-23T09:52:18.490Z,24.82
2019-05-23T09:53:18.438Z,24.67
2019-05-23T09:54:18.333Z,24.68
2019-05-23T09:55:18.304Z,24.71
2019-05-23T09:56:18.201Z,24.82
2019-05-23T09:57:18.138Z,24.86
2019-05-23T09:58:18.064Z,25.02
2019-05-23T09:59:18.004Z,25.24
2019-05-23T10:00:17.970Z,25.16
2019-05-23T10:01:17.942Z,25.20
2019-05-23T10:02:17.809Z,25.38
2019-05-23T10:03:17.739Z,25.31
2019-05-23T10:04:17.669Z,25.45
2019-05-23T10:05:17.614Z,25.53
2019-05-23T10:06:17.565Z,25.63
2019-05-23T10:07:17.478Z,25.67
2019-05-23T10:08:17.408Z,25.67
2019-05-23T10:09:17.346Z,25.60
2019-05-23T10:10:17.270Z,25.75
2019-05-23T10:11:17.224Z,25.75
2019-05-23T10:12:17.140Z,25.44
2019-05-23T10:13:17.078Z,25.64
2019-05-23T10:14:17.009Z,25.72
2019-05-23T10:15:16.947Z,25.63
2019-05-23T10:16:16.886Z,25.57
2019-05-23T10:17:16.818Z,25.35
2019-05-23T10:18:16.750Z,25.39
2019-05-23T10:19:16.695Z,25.54
2019-05-23T10:20:16.612Z,25.57
2019-05-23T10:21:16.575Z,25.51
2019-05-23T10:22:16.484Z,25.60
2019-05-23T10:23:16.429Z,25.66
2019-05-23T10:24:16.361Z,25.78
2019-05-23T10:25:16.291Z,25.67
2019-05-23T10:26:16.226Z,25.86
2019-05-23T10:27:16.150Z,26.11
2019-05-23T10:28:16.082Z,25.89
2019-05-23T10:29:16.022Z,25.91
2019-05-23T10:30:15.948Z,25.97
2019-05-23T10:31:15.896Z,25.79
2019-05-23T10:32:15.825Z,25.49
2019-05-23T10:33:15.755Z,25.36
2019-05-23T10:34:15.684Z,25.09
2019-05-23T10:35:15.630Z,24.71
2019-05-23T10:36:15.600Z,24.80
2019-05-23T10:37:15.484Z,24.93
2019-05-23T10:38:15.428Z,24.92
2019-05-23T10:39:15.350Z,24.92
2019-05-23T10:40:15.280Z,24.89
2019-05-23T10:41:15.238Z,25.02
2019-05-23T10:42:15.145Z,25.16
2019-05-23T10:43:15.085Z,25.05
2019-05-23T10:44:15.017Z,25.27
2019-05-23T10:45:14.941Z,25.42
2019-05-23T10:46:14.899Z,25.63
2019-05-23T10:47:14.845Z,25.74
2019-05-23T10:48:14.745Z,25.78
2019-05-23T10:49:14.682Z,25.91
2019-05-23T10:50:14.626Z,25.94
2019-05-23T10:51:14.553Z,26.04
2019-05-23T10:52:14.480Z,26.19
2019-05-23T10:53:14.408Z,26.17
2019-05-23T10:54:14.343Z,25.85
2019-05-23T10:55:14.282Z,25.72
2019-05-23T10:56:14.232Z,25.86
2019-05-23T10:57:14.145Z,25.96
2019-05-23T10:58:14.100Z,25.86
2019-05-23T10:59:14.031Z,25.91
2019-05-23T11:00:13.944Z,26.09
2019-05-23T11:01:13.900Z,26.47
2019-05-23T11:02:13.811Z,26.44
2019-05-23T11:03:13.749Z,26.47
2019-05-23T11:04:13.686Z,26.56
2019-05-23T11:05:14.232Z,26.84
2019-05-23T11:06:16.679Z,26.71
2019-05-23T11:07:13.482Z,26.68
2019-05-23T11:08:13.415Z,26.09
2019-05-23T11:09:13.363Z,25.90
2019-05-23T11:10:13.287Z,25.75
2019-05-23T11:11:14.690Z,25.89
2019-05-23T11:12:13.152Z,26.12
2019-05-23T11:13:13.097Z,26.39
2019-05-23T11:14:13.025Z,26.54
2019-05-23T11:15:12.956Z,26.20
2019-05-23T11:16:12.897Z,25.93
2019-05-23T11:17:12.835Z,25.91
2019-05-23T11:18:12.764Z,25.75
2019-05-23T11:19:12.695Z,25.96
2019-05-23T11:20:12.625Z,26.08
2019-05-23T11:21:12.557Z,26.16
2019-05-23T11:22:12.507Z,26.11
2019-05-23T11:23:12.427Z,26.29
2019-05-23T11:24:12.368Z,26.44
2019-05-23T11:25:12.292Z,26.51
2019-05-23T11:26:12.229Z,26.57
2019-05-23T11:27:12.180Z,26.68
2019-05-23T11:28:12.093Z,26.50
2019-05-23T11:29:12.035Z,26.65
2019-05-23T11:30:11.965Z,26.68
2019-05-23T11:31:11.899Z,26.68
2019-05-23T11:32:11.858Z,26.79
2019-05-23T11:33:11.780Z,26.72
2019-05-23T11:34:11.702Z,26.65
2019-05-23T11:35:11.635Z,26.50
2019-05-23T11:36:11.583Z,26.53
2019-05-23T11:37:11.525Z,26.41
2019-05-23T11:38:11.438Z,26.36
2019-05-23T11:39:11.398Z,26.21
2019-05-23T11:40:11.308Z,26.13
2019-05-23T11:41:11.234Z,25.91
2019-05-23T11:42:11.191Z,25.89
2019-05-23T11:43:11.104Z,25.81
2019-05-23T11:44:11.052Z,25.64
2019-05-23T11:45:10.991Z,25.59
2019-05-23T11:46:10.923Z,25.42
2019-05-23T11:47:10.845Z,25.61
2019-05-23T11:48:10.830Z,25.89
2019-05-23T11:49:10.729Z,25.89
2019-05-23T11:50:11.140Z,25.93
2019-05-23T11:51:10.562Z,25.96
2019-05-23T11:52:10.510Z,25.96
2019-05-23T11:53:10.423Z,25.79
2019-05-23T11:54:10.544Z,25.42
2019-05-23T11:55:10.291Z,25.54
2019-05-23T11:56:10.242Z,25.60
2019-05-23T11:57:10.237Z,25.91
2019-05-23T11:58:10.112Z,26.34
2019-05-23T11:59:10.015Z,26.53
2019-05-23T12:00:09.962Z,26.57
2019-05-23T12:01:10.531Z,26.64
2019-05-23T12:02:09.832Z,26.41
2019-05-23T12:03:09.746Z,26.29
2019-05-23T12:04:09.699Z,26.38
2019-05-23T12:05:09.612Z,26.28
2019-05-23T12:06:09.553Z,26.01
2019-05-23T12:07:09.487Z,26.21
2019-05-23T12:08:09.409Z,26.28
2019-05-23T12:09:09.335Z,26.19
2019-05-23T12:10:09.287Z,26.13
2019-05-23T12:11:09.364Z,25.86
2019-05-23T12:12:09.153Z,25.64
2019-05-23T12:13:09.078Z,25.49
2019-05-23T12:14:09.000Z,25.20
2019-05-23T12:15:08.938Z,25.34
2019-05-23T12:16:08.871Z,25.42
2019-05-23T12:17:08.817Z,25.76
2019-05-23T12:18:08.737Z,26.20
2019-05-23T12:19:08.658Z,26.49
2019-05-23T12:20:08.610Z,26.54
2019-05-23T12:21:08.533Z,26.73
2019-05-23T12:22:08.467Z,26.53
2019-05-23T12:23:10.950Z,26.13
2019-05-23T12:24:08.317Z,25.93
2019-05-23T12:25:21.476Z,25.94
2019-05-23T12:26:08.194Z,25.83
2019-05-23T12:27:08.206Z,25.93
2019-05-23T12:28:08.063Z,25.59
2019-05-23T12:29:07.985Z,25.56
2019-05-23T12:30:07.916Z,25.48
2019-05-23T12:31:07.865Z,25.78
2019-05-23T12:32:07.796Z,25.83
2019-05-23T12:33:07.719Z,25.86
2019-05-23T12:34:07.652Z,25.76
2019-05-23T12:35:11.235Z,25.56
2019-05-23T12:36:07.508Z,25.31
2019-05-23T12:37:18.857Z,25.24
2019-05-23T12:38:07.377Z,25.35
2019-05-23T12:39:07.301Z,25.60
2019-05-23T12:40:07.232Z,25.76
2019-05-23T12:41:07.160Z,25.61
2019-05-23T12:42:07.093Z,25.59
2019-05-23T12:43:07.050Z,25.51
2019-05-23T12:44:06.948Z,25.41
2019-05-23T12:45:06.884Z,25.20
2019-05-23T12:46:06.824Z,24.84
2019-05-23T12:47:06.735Z,24.70
2019-05-23T12:48:06.679Z,24.84
2019-05-23T12:49:06.609Z,25.11
2019-05-23T12:50:06.527Z,25.36
2019-05-23T12:51:06.457Z,25.74
2019-05-23T12:52:06.388Z,26.19
2019-05-23T12:53:06.330Z,26.24
2019-05-23T12:54:06.323Z,26.46
2019-05-23T12:55:06.175Z,26.12
2019-05-23T12:56:06.123Z,26.29
2019-05-23T12:57:06.035Z,26.34
2019-05-23T12:58:05.982Z,26.24